sensor_id;sensor_type;location;lat;lon;timestamp;temperature;humidity
12853;DHT22;6495;51.808;7.478;2023-03-31T00:00:28;11.80;99.90
12853;DHT22;6495;51.808;7.478;2023-03-31T00:03:17;11.80;99.90
12853;DHT22;6495;51.808;7.478;2023-03-31T00:06:11;11.80;99.90
12853;DHT22;6495;51.808;7.478;2023-03-31T00:09:07;11.80;99.90
12853;DHT22;6495;51.808;7.478;2023-03-31T00:11:57;11.80;99.90
12853;DHT22;6495;51.808;7.478;2023-03-31T00:14:46;11.70;99.90
12853;DHT22;6495;51.808;7.478;2023-03-31T00:17:35;11.70;99.90
12853;DHT22;6495;51.808;7.478;2023-03-31T00:20:23;11.70;99.90
12853;DHT22;6495;51.808;7.478;2023-03-31T00:23:12;11.70;99.90
12853;DHT22;6495;51.808;7.478;2023-03-31T00:26:02;11.60;99.90
12853;DHT22;6495;51.808;7.478;2023-03-31T00:28:51;11.60;99.90
12853;DHT22;6495;51.808;7.478;2023-03-31T00:31:40;11.60;99.90
12853;DHT22;6495;51.808;7.478;2023-03-31T00:34:29;11.60;99.90
12853;DHT22;6495;51.808;7.478;2023-03-31T00:37:19;11.50;99.90
12853;DHT22;6495;51.808;7.478;2023-03-31T00:40:09;11.50;99.90
12853;DHT22;6495;51.808;7.478;2023-03-31T00:43:00;11.50;99.90
12853;DHT22;6495;51.808;7.478;2023-03-31T00:45:49;11.50;99.90
12853;DHT22;6495;51.808;7.478;2023-03-31T00:48:40;11.40;99.90
12853;DHT22;6495;51.808;7.478;2023-03-31T00:51:34;11.40;99.90
12853;DHT22;6495;51.808;7.478;2023-03-31T00:54:26;11.40;99.90
12853;DHT22;6495;51.808;7.478;2023-03-31T00:57:15;11.40;99.90
12853;DHT22;6495;51.808;7.478;2023-03-31T01:00:11;11.40;99.90
12853;DHT22;6495;51.808;7.478;2023-03-31T01:03:05;11.40;99.90
12853;DHT22;6495;51.808;7.478;2023-03-31T01:05:59;11.40;99.90
12853;DHT22;6495;51.808;7.478;2023-03-31T01:08:51;11.40;99.90
12853;DHT22;6495;51.808;7.478;2023-03-31T01:11:40;11.40;99.90
12853;DHT22;6495;51.808;7.478;2023-03-31T01:14:32;11.30;99.90
12853;DHT22;6495;51.808;7.478;2023-03-31T01:17:23;11.30;99.90
12853;DHT22;6495;51.808;7.478;2023-03-31T01:20:22;11.40;99.90
12853;DHT22;6495;51.808;7.478;2023-03-31T01:23:35;11.30;99.90
12853;DHT22;6495;51.808;7.478;2023-03-31T01:26:55;11.30;99.90
12853;DHT22;6495;51.808;7.478;2023-03-31T01:30:10;11.30;99.90
12853;DHT22;6495;51.808;7.478;2023-03-31T01:37:27;11.30;99.90
12853;DHT22;6495;51.808;7.478;2023-03-31T01:41:09;11.30;99.90
12853;DHT22;6495;51.808;7.478;2023-03-31T01:44:16;11.30;99.90
12853;DHT22;6495;51.808;7.478;2023-03-31T01:47:14;11.30;99.90
12853;DHT22;6495;51.808;7.478;2023-03-31T01:50:16;11.20;99.90
12853;DHT22;6495;51.808;7.478;2023-03-31T01:53:16;11.30;99.90
12853;DHT22;6495;51.808;7.478;2023-03-31T01:56:16;11.30;99.90
12853;DHT22;6495;51.808;7.478;2023-03-31T01:59:10;11.30;99.90
12853;DHT22;6495;51.808;7.478;2023-03-31T02:02:04;11.20;99.90
12853;DHT22;6495;51.808;7.478;2023-03-31T02:04:59;11.30;99.90
12853;DHT22;6495;51.808;7.478;2023-03-31T02:07:54;11.30;99.90
12853;DHT22;6495;51.808;7.478;2023-03-31T02:10:47;11.30;99.90
12853;DHT22;6495;51.808;7.478;2023-03-31T02:13:40;11.30;99.90
12853;DHT22;6495;51.808;7.478;2023-03-31T02:16:36;11.30;99.90
12853;DHT22;6495;51.808;7.478;2023-03-31T02:19:31;11.30;99.90
12853;DHT22;6495;51.808;7.478;2023-03-31T02:22:22;11.30;99.90
12853;DHT22;6495;51.808;7.478;2023-03-31T02:25:16;11.30;99.90
12853;DHT22;6495;51.808;7.478;2023-03-31T02:28:09;11.20;99.90
12853;DHT22;6495;51.808;7.478;2023-03-31T02:31:19;11.20;99.90
12853;DHT22;6495;51.808;7.478;2023-03-31T02:34:14;11.20;99.90
12853;DHT22;6495;51.808;7.478;2023-03-31T02:37:03;11.20;99.90
12853;DHT22;6495;51.808;7.478;2023-03-31T02:39:54;11.20;99.90
12853;DHT22;6495;51.808;7.478;2023-03-31T02:42:44;11.30;99.90
12853;DHT22;6495;51.808;7.478;2023-03-31T02:45:38;11.20;99.90
12853;DHT22;6495;51.808;7.478;2023-03-31T02:48:34;11.30;99.90
12853;DHT22;6495;51.808;7.478;2023-03-31T02:51:55;11.30;99.90
12853;DHT22;6495;51.808;7.478;2023-03-31T02:55:33;11.30;99.90
12853;DHT22;6495;51.808;7.478;2023-03-31T02:58:58;11.20;99.90
12853;DHT22;6495;51.808;7.478;2023-03-31T03:02:09;11.20;99.90
12853;DHT22;6495;51.808;7.478;2023-03-31T03:05:17;11.10;99.90
12853;DHT22;6495;51.808;7.478;2023-03-31T03:08:47;11.10;99.90
12853;DHT22;6495;51.808;7.478;2023-03-31T03:11:50;11.00;99.90
12853;DHT22;6495;51.808;7.478;2023-03-31T03:14:51;11.00;99.90
12853;DHT22;6495;51.808;7.478;2023-03-31T03:17:48;11.00;99.90
12853;DHT22;6495;51.808;7.478;2023-03-31T03:20:41;10.90;99.90
12853;DHT22;6495;51.808;7.478;2023-03-31T03:23:34;10.90;99.90
12853;DHT22;6495;51.808;7.478;2023-03-31T03:26:23;10.80;99.90
12853;DHT22;6495;51.808;7.478;2023-03-31T03:29:14;10.80;99.90
12853;DHT22;6495;51.808;7.478;2023-03-31T03:32:02;10.80;99.90
12853;DHT22;6495;51.808;7.478;2023-03-31T03:34:51;10.70;99.90
12853;DHT22;6495;51.808;7.478;2023-03-31T03:37:40;10.70;99.90
12853;DHT22;6495;51.808;7.478;2023-03-31T03:40:29;10.70;99.90
12853;DHT22;6495;51.808;7.478;2023-03-31T03:43:18;10.70;99.90
12853;DHT22;6495;51.808;7.478;2023-03-31T03:46:06;10.70;99.90
12853;DHT22;6495;51.808;7.478;2023-03-31T03:48:55;10.70;99.90
12853;DHT22;6495;51.808;7.478;2023-03-31T03:51:44;10.70;99.90
12853;DHT22;6495;51.808;7.478;2023-03-31T03:54:34;10.70;99.90
12853;DHT22;6495;51.808;7.478;2023-03-31T03:57:23;10.70;99.90
12853;DHT22;6495;51.808;7.478;2023-03-31T04:00:12;10.70;99.90
12853;DHT22;6495;51.808;7.478;2023-03-31T04:03:02;10.70;99.90
12853;DHT22;6495;51.808;7.478;2023-03-31T04:05:51;10.70;99.90
12853;DHT22;6495;51.808;7.478;2023-03-31T04:08:39;10.70;99.90
12853;DHT22;6495;51.808;7.478;2023-03-31T04:11:30;10.70;99.90
12853;DHT22;6495;51.808;7.478;2023-03-31T04:14:19;10.70;99.90
12853;DHT22;6495;51.808;7.478;2023-03-31T04:17:07;10.70;99.90
12853;DHT22;6495;51.808;7.478;2023-03-31T04:19:56;10.70;99.90
12853;DHT22;6495;51.808;7.478;2023-03-31T04:22:47;10.70;99.90
12853;DHT22;6495;51.808;7.478;2023-03-31T04:25:36;10.70;99.90
12853;DHT22;6495;51.808;7.478;2023-03-31T04:28:33;10.70;99.90
12853;DHT22;6495;51.808;7.478;2023-03-31T04:31:21;10.70;99.90
12853;DHT22;6495;51.808;7.478;2023-03-31T04:34:13;10.70;99.90
12853;DHT22;6495;51.808;7.478;2023-03-31T04:37:02;10.70;99.90
12853;DHT22;6495;51.808;7.478;2023-03-31T04:39:51;10.60;99.90
12853;DHT22;6495;51.808;7.478;2023-03-31T04:42:40;10.60;99.90
12853;DHT22;6495;51.808;7.478;2023-03-31T04:45:31;10.60;99.90
12853;DHT22;6495;51.808;7.478;2023-03-31T04:48:19;10.60;99.90
12853;DHT22;6495;51.808;7.478;2023-03-31T04:51:08;10.60;99.90
12853;DHT22;6495;51.808;7.478;2023-03-31T04:53:56;10.60;99.90
12853;DHT22;6495;51.808;7.478;2023-03-31T04:56:45;10.60;99.90
12853;DHT22;6495;51.808;7.478;2023-03-31T04:59:34;10.60;99.90
12853;DHT22;6495;51.808;7.478;2023-03-31T05:02:32;10.60;99.90
12853;DHT22;6495;51.808;7.478;2023-03-31T05:05:20;10.60;99.90
12853;DHT22;6495;51.808;7.478;2023-03-31T05:08:09;10.60;99.90
12853;DHT22;6495;51.808;7.478;2023-03-31T05:10:57;10.60;99.90
12853;DHT22;6495;51.808;7.478;2023-03-31T05:13:46;10.60;99.90
12853;DHT22;6495;51.808;7.478;2023-03-31T05:16:34;10.60;99.90
12853;DHT22;6495;51.808;7.478;2023-03-31T05:19:24;10.60;99.90
12853;DHT22;6495;51.808;7.478;2023-03-31T05:22:13;10.50;99.90
12853;DHT22;6495;51.808;7.478;2023-03-31T05:25:08;10.50;99.90
12853;DHT22;6495;51.808;7.478;2023-03-31T05:27:58;10.50;99.90
12853;DHT22;6495;51.808;7.478;2023-03-31T05:30:47;10.50;99.90
12853;DHT22;6495;51.808;7.478;2023-03-31T05:33:35;10.50;99.90
12853;DHT22;6495;51.808;7.478;2023-03-31T05:36:29;10.50;99.90
12853;DHT22;6495;51.808;7.478;2023-03-31T05:39:18;10.50;99.90
12853;DHT22;6495;51.808;7.478;2023-03-31T05:42:07;10.50;99.90
12853;DHT22;6495;51.808;7.478;2023-03-31T05:44:56;10.50;99.90
12853;DHT22;6495;51.808;7.478;2023-03-31T05:47:44;10.50;99.90
12853;DHT22;6495;51.808;7.478;2023-03-31T05:50:33;10.50;99.90
12853;DHT22;6495;51.808;7.478;2023-03-31T05:53:23;10.50;99.90
12853;DHT22;6495;51.808;7.478;2023-03-31T05:56:11;10.40;99.90
12853;DHT22;6495;51.808;7.478;2023-03-31T05:59:00;10.50;99.90
12853;DHT22;6495;51.808;7.478;2023-03-31T06:01:51;10.50;99.90
12853;DHT22;6495;51.808;7.478;2023-03-31T06:04:39;10.50;99.90
12853;DHT22;6495;51.808;7.478;2023-03-31T06:07:29;10.50;99.90
12853;DHT22;6495;51.808;7.478;2023-03-31T06:10:19;10.50;99.90
12853;DHT22;6495;51.808;7.478;2023-03-31T06:13:08;10.50;99.90
12853;DHT22;6495;51.808;7.478;2023-03-31T06:15:58;10.50;99.90
12853;DHT22;6495;51.808;7.478;2023-03-31T06:18:47;10.50;99.90
12853;DHT22;6495;51.808;7.478;2023-03-31T06:21:37;10.50;99.90
12853;DHT22;6495;51.808;7.478;2023-03-31T06:24:25;10.50;99.90
12853;DHT22;6495;51.808;7.478;2023-03-31T06:27:15;10.50;99.90
12853;DHT22;6495;51.808;7.478;2023-03-31T06:30:05;10.50;99.90
12853;DHT22;6495;51.808;7.478;2023-03-31T06:32:54;10.60;99.90
12853;DHT22;6495;51.808;7.478;2023-03-31T06:35:42;10.60;99.90
12853;DHT22;6495;51.808;7.478;2023-03-31T06:38:31;10.60;99.90
12853;DHT22;6495;51.808;7.478;2023-03-31T06:41:20;10.60;99.90
12853;DHT22;6495;51.808;7.478;2023-03-31T06:44:10;10.60;99.90
12853;DHT22;6495;51.808;7.478;2023-03-31T06:46:59;10.60;99.90
12853;DHT22;6495;51.808;7.478;2023-03-31T06:49:47;10.60;99.90
12853;DHT22;6495;51.808;7.478;2023-03-31T06:52:36;10.60;99.90
12853;DHT22;6495;51.808;7.478;2023-03-31T06:55:25;10.60;99.90
12853;DHT22;6495;51.808;7.478;2023-03-31T06:58:13;10.60;99.90
12853;DHT22;6495;51.808;7.478;2023-03-31T07:01:04;10.70;99.90
12853;DHT22;6495;51.808;7.478;2023-03-31T07:03:54;10.70;99.90
12853;DHT22;6495;51.808;7.478;2023-03-31T07:06:43;10.70;99.90
12853;DHT22;6495;51.808;7.478;2023-03-31T07:09:31;10.70;99.90
12853;DHT22;6495;51.808;7.478;2023-03-31T07:12:20;10.70;99.90
12853;DHT22;6495;51.808;7.478;2023-03-31T07:15:09;10.70;99.90
12853;DHT22;6495;51.808;7.478;2023-03-31T07:17:59;10.70;99.90
12853;DHT22;6495;51.808;7.478;2023-03-31T07:20:49;10.70;99.90
12853;DHT22;6495;51.808;7.478;2023-03-31T07:23:38;10.70;99.90
12853;DHT22;6495;51.808;7.478;2023-03-31T07:26:26;10.70;99.90
12853;DHT22;6495;51.808;7.478;2023-03-31T07:29:15;10.70;99.90
12853;DHT22;6495;51.808;7.478;2023-03-31T07:32:03;10.70;99.90
12853;DHT22;6495;51.808;7.478;2023-03-31T07:34:53;10.70;99.90
12853;DHT22;6495;51.808;7.478;2023-03-31T07:37:43;10.70;99.90
12853;DHT22;6495;51.808;7.478;2023-03-31T07:40:33;10.70;99.90
12853;DHT22;6495;51.808;7.478;2023-03-31T07:43:22;10.70;99.90
12853;DHT22;6495;51.808;7.478;2023-03-31T07:46:15;10.70;99.90
12853;DHT22;6495;51.808;7.478;2023-03-31T07:49:05;10.70;99.90
12853;DHT22;6495;51.808;7.478;2023-03-31T07:51:57;10.70;99.90
12853;DHT22;6495;51.808;7.478;2023-03-31T07:54:45;10.70;99.90
12853;DHT22;6495;51.808;7.478;2023-03-31T07:57:34;10.70;99.90
12853;DHT22;6495;51.808;7.478;2023-03-31T08:00:24;10.70;99.90
12853;DHT22;6495;51.808;7.478;2023-03-31T08:03:13;10.70;99.90
12853;DHT22;6495;51.808;7.478;2023-03-31T08:06:01;10.70;99.90
12853;DHT22;6495;51.808;7.478;2023-03-31T08:08:52;10.70;99.90
12853;DHT22;6495;51.808;7.478;2023-03-31T08:11:40;10.70;99.90
12853;DHT22;6495;51.808;7.478;2023-03-31T08:14:32;10.70;99.90
12853;DHT22;6495;51.808;7.478;2023-03-31T08:17:27;10.70;99.90
12853;DHT22;6495;51.808;7.478;2023-03-31T08:20:16;10.70;99.90
12853;DHT22;6495;51.808;7.478;2023-03-31T08:23:05;10.70;99.90
12853;DHT22;6495;51.808;7.478;2023-03-31T08:26:09;10.70;99.90
12853;DHT22;6495;51.808;7.478;2023-03-31T08:29:03;10.70;99.90
12853;DHT22;6495;51.808;7.478;2023-03-31T08:31:53;10.70;99.90
12853;DHT22;6495;51.808;7.478;2023-03-31T08:34:42;10.70;99.90
12853;DHT22;6495;51.808;7.478;2023-03-31T08:37:31;10.70;99.90
12853;DHT22;6495;51.808;7.478;2023-03-31T08:40:23;10.70;99.90
12853;DHT22;6495;51.808;7.478;2023-03-31T08:43:21;10.70;99.90
12853;DHT22;6495;51.808;7.478;2023-03-31T08:46:17;10.70;99.90
12853;DHT22;6495;51.808;7.478;2023-03-31T08:49:10;10.70;99.90
12853;DHT22;6495;51.808;7.478;2023-03-31T08:52:04;10.70;99.90
12853;DHT22;6495;51.808;7.478;2023-03-31T08:55:00;10.80;99.90
12853;DHT22;6495;51.808;7.478;2023-03-31T08:57:58;10.80;99.90
12853;DHT22;6495;51.808;7.478;2023-03-31T09:00:56;10.80;99.90
12853;DHT22;6495;51.808;7.478;2023-03-31T09:04:08;10.80;99.90
12853;DHT22;6495;51.808;7.478;2023-03-31T09:07:12;10.90;99.90
12853;DHT22;6495;51.808;7.478;2023-03-31T09:10:23;10.80;99.90
12853;DHT22;6495;51.808;7.478;2023-03-31T09:13:41;10.90;99.90
12853;DHT22;6495;51.808;7.478;2023-03-31T09:16:44;10.90;99.90
12853;DHT22;6495;51.808;7.478;2023-03-31T09:19:41;10.90;99.90
12853;DHT22;6495;51.808;7.478;2023-03-31T09:22:38;10.90;99.90
12853;DHT22;6495;51.808;7.478;2023-03-31T09:25:33;10.90;99.90
12853;DHT22;6495;51.808;7.478;2023-03-31T09:28:28;11.00;99.90
12853;DHT22;6495;51.808;7.478;2023-03-31T09:31:21;10.90;99.90
12853;DHT22;6495;51.808;7.478;2023-03-31T09:34:14;10.90;99.90
12853;DHT22;6495;51.808;7.478;2023-03-31T09:37:08;10.90;99.90
12853;DHT22;6495;51.808;7.478;2023-03-31T09:39:59;10.90;99.90
12853;DHT22;6495;51.808;7.478;2023-03-31T09:42:55;10.90;99.90
12853;DHT22;6495;51.808;7.478;2023-03-31T09:45:46;10.90;99.90
12853;DHT22;6495;51.808;7.478;2023-03-31T09:49:01;10.90;99.90
12853;DHT22;6495;51.808;7.478;2023-03-31T09:52:01;10.90;99.90
12853;DHT22;6495;51.808;7.478;2023-03-31T09:54:53;10.90;99.90
12853;DHT22;6495;51.808;7.478;2023-03-31T09:57:43;10.90;99.90
12853;DHT22;6495;51.808;7.478;2023-03-31T10:00:33;10.80;99.90
12853;DHT22;6495;51.808;7.478;2023-03-31T10:03:23;10.80;99.90
12853;DHT22;6495;51.808;7.478;2023-03-31T10:06:15;10.80;99.90
12853;DHT22;6495;51.808;7.478;2023-03-31T10:09:06;10.80;99.90
12853;DHT22;6495;51.808;7.478;2023-03-31T10:12:02;10.80;99.90
12853;DHT22;6495;51.808;7.478;2023-03-31T10:14:54;10.80;99.90
12853;DHT22;6495;51.808;7.478;2023-03-31T10:17:59;10.80;99.90
12853;DHT22;6495;51.808;7.478;2023-03-31T10:20:49;10.80;99.90
12853;DHT22;6495;51.808;7.478;2023-03-31T10:23:45;10.80;99.90
12853;DHT22;6495;51.808;7.478;2023-03-31T10:26:36;10.80;99.90
12853;DHT22;6495;51.808;7.478;2023-03-31T10:29:29;10.90;99.90
12853;DHT22;6495;51.808;7.478;2023-03-31T10:32:23;10.90;99.90
12853;DHT22;6495;51.808;7.478;2023-03-31T10:35:22;10.90;99.90
12853;DHT22;6495;51.808;7.478;2023-03-31T10:38:15;10.90;99.90
12853;DHT22;6495;51.808;7.478;2023-03-31T10:41:08;11.00;99.90
12853;DHT22;6495;51.808;7.478;2023-03-31T10:44:00;11.00;99.90
12853;DHT22;6495;51.808;7.478;2023-03-31T10:46:51;11.10;99.90
12853;DHT22;6495;51.808;7.478;2023-03-31T10:49:42;11.10;99.90
12853;DHT22;6495;51.808;7.478;2023-03-31T10:52:43;11.20;99.90
12853;DHT22;6495;51.808;7.478;2023-03-31T10:55:35;11.30;99.90
12853;DHT22;6495;51.808;7.478;2023-03-31T10:58:40;11.30;99.90
12853;DHT22;6495;51.808;7.478;2023-03-31T11:02:04;11.40;99.90
12853;DHT22;6495;51.808;7.478;2023-03-31T11:05:13;11.40;99.90
12853;DHT22;6495;51.808;7.478;2023-03-31T11:08:31;11.50;99.90
12853;DHT22;6495;51.808;7.478;2023-03-31T11:11:48;11.50;99.90
12853;DHT22;6495;51.808;7.478;2023-03-31T11:14:53;11.60;99.90
12853;DHT22;6495;51.808;7.478;2023-03-31T11:18:02;11.60;99.90
12853;DHT22;6495;51.808;7.478;2023-03-31T11:21:05;11.70;99.90
12853;DHT22;6495;51.808;7.478;2023-03-31T11:24:16;11.70;99.90
12853;DHT22;6495;51.808;7.478;2023-03-31T11:27:32;11.80;99.90
12853;DHT22;6495;51.808;7.478;2023-03-31T11:30:30;11.90;99.90
12853;DHT22;6495;51.808;7.478;2023-03-31T11:33:37;12.00;99.90
12853;DHT22;6495;51.808;7.478;2023-03-31T11:36:45;12.10;99.90
12853;DHT22;6495;51.808;7.478;2023-03-31T11:39:53;12.20;99.90
12853;DHT22;6495;51.808;7.478;2023-03-31T11:42:57;12.40;99.90
12853;DHT22;6495;51.808;7.478;2023-03-31T11:45:52;12.50;99.90
12853;DHT22;6495;51.808;7.478;2023-03-31T11:48:49;12.60;99.90
12853;DHT22;6495;51.808;7.478;2023-03-31T11:51:47;12.80;99.90
12853;DHT22;6495;51.808;7.478;2023-03-31T11:54:45;12.80;99.90
12853;DHT22;6495;51.808;7.478;2023-03-31T11:57:43;12.90;99.90
12853;DHT22;6495;51.808;7.478;2023-03-31T12:00:37;13.00;99.90
12853;DHT22;6495;51.808;7.478;2023-03-31T12:03:36;13.00;99.90
12853;DHT22;6495;51.808;7.478;2023-03-31T12:06:32;13.00;99.90
12853;DHT22;6495;51.808;7.478;2023-03-31T12:09:29;12.90;99.90
12853;DHT22;6495;51.808;7.478;2023-03-31T12:12:28;12.90;99.90
12853;DHT22;6495;51.808;7.478;2023-03-31T12:15:23;12.80;99.90
12853;DHT22;6495;51.808;7.478;2023-03-31T12:18:19;12.80;99.90
12853;DHT22;6495;51.808;7.478;2023-03-31T12:21:10;12.90;99.90
12853;DHT22;6495;51.808;7.478;2023-03-31T12:23:59;12.90;99.90
12853;DHT22;6495;51.808;7.478;2023-03-31T12:26:55;13.00;99.90
12853;DHT22;6495;51.808;7.478;2023-03-31T12:29:55;13.10;99.90
12853;DHT22;6495;51.808;7.478;2023-03-31T12:32:48;13.20;99.90
12853;DHT22;6495;51.808;7.478;2023-03-31T12:35:49;13.20;99.90
12853;DHT22;6495;51.808;7.478;2023-03-31T12:39:02;13.30;99.90
12853;DHT22;6495;51.808;7.478;2023-03-31T12:45:52;13.40;99.90
12853;DHT22;6495;51.808;7.478;2023-03-31T12:52:03;13.50;99.90
12853;DHT22;6495;51.808;7.478;2023-03-31T12:58:40;13.50;99.90
12853;DHT22;6495;51.808;7.478;2023-03-31T13:01:30;13.60;99.90
12853;DHT22;6495;51.808;7.478;2023-03-31T13:04:20;13.60;99.90
12853;DHT22;6495;51.808;7.478;2023-03-31T13:07:12;13.60;99.90
12853;DHT22;6495;51.808;7.478;2023-03-31T13:10:27;13.70;99.90
12853;DHT22;6495;51.808;7.478;2023-03-31T13:13:17;13.80;99.90
12853;DHT22;6495;51.808;7.478;2023-03-31T13:16:05;13.80;99.90
12853;DHT22;6495;51.808;7.478;2023-03-31T13:18:54;13.80;99.90
12853;DHT22;6495;51.808;7.478;2023-03-31T13:21:53;13.90;99.90
12853;DHT22;6495;51.808;7.478;2023-03-31T13:24:43;14.00;99.90
12853;DHT22;6495;51.808;7.478;2023-03-31T13:27:33;14.00;99.90
12853;DHT22;6495;51.808;7.478;2023-03-31T13:30:45;14.00;99.90
12853;DHT22;6495;51.808;7.478;2023-03-31T13:37:07;14.00;99.90
12853;DHT22;6495;51.808;7.478;2023-03-31T13:40:27;14.00;99.90
12853;DHT22;6495;51.808;7.478;2023-03-31T13:43:57;14.00;99.90
12853;DHT22;6495;51.808;7.478;2023-03-31T13:47:15;14.10;99.90
12853;DHT22;6495;51.808;7.478;2023-03-31T13:50:38;14.10;99.90
12853;DHT22;6495;51.808;7.478;2023-03-31T13:53:53;14.10;99.90
12853;DHT22;6495;51.808;7.478;2023-03-31T13:57:30;14.20;99.90
12853;DHT22;6495;51.808;7.478;2023-03-31T14:00:45;14.20;99.90
12853;DHT22;6495;51.808;7.478;2023-03-31T14:03:54;14.20;99.90
12853;DHT22;6495;51.808;7.478;2023-03-31T14:06:57;14.30;99.90
12853;DHT22;6495;51.808;7.478;2023-03-31T14:09:51;14.30;99.90
12853;DHT22;6495;51.808;7.478;2023-03-31T14:12:40;14.30;99.90
12853;DHT22;6495;51.808;7.478;2023-03-31T14:15:30;14.30;99.90
12853;DHT22;6495;51.808;7.478;2023-03-31T14:18:23;14.30;99.90
12853;DHT22;6495;51.808;7.478;2023-03-31T14:21:18;14.40;99.90
12853;DHT22;6495;51.808;7.478;2023-03-31T14:24:17;14.40;99.90
12853;DHT22;6495;51.808;7.478;2023-03-31T14:27:20;14.40;99.90
12853;DHT22;6495;51.808;7.478;2023-03-31T14:30:30;14.40;99.90
12853;DHT22;6495;51.808;7.478;2023-03-31T14:33:35;14.40;99.90
12853;DHT22;6495;51.808;7.478;2023-03-31T14:36:32;14.40;99.90
12853;DHT22;6495;51.808;7.478;2023-03-31T14:39:30;14.40;99.90
12853;DHT22;6495;51.808;7.478;2023-03-31T14:42:23;14.50;99.90
12853;DHT22;6495;51.808;7.478;2023-03-31T14:45:17;14.50;99.90
12853;DHT22;6495;51.808;7.478;2023-03-31T14:48:11;14.40;99.90
12853;DHT22;6495;51.808;7.478;2023-03-31T14:51:08;14.40;99.90
12853;DHT22;6495;51.808;7.478;2023-03-31T14:53:58;14.40;99.90
12853;DHT22;6495;51.808;7.478;2023-03-31T14:56:50;14.30;99.90
12853;DHT22;6495;51.808;7.478;2023-03-31T14:59:43;14.20;99.90
12853;DHT22;6495;51.808;7.478;2023-03-31T15:02:35;14.10;99.90
12853;DHT22;6495;51.808;7.478;2023-03-31T15:05:28;14.00;99.90
12853;DHT22;6495;51.808;7.478;2023-03-31T15:08:21;13.90;99.90
12853;DHT22;6495;51.808;7.478;2023-03-31T15:11:15;13.80;99.90
12853;DHT22;6495;51.808;7.478;2023-03-31T15:14:08;13.80;99.90
12853;DHT22;6495;51.808;7.478;2023-03-31T15:16:57;13.80;99.90
12853;DHT22;6495;51.808;7.478;2023-03-31T15:19:53;13.70;99.90
12853;DHT22;6495;51.808;7.478;2023-03-31T15:22:42;13.70;99.90
12853;DHT22;6495;51.808;7.478;2023-03-31T15:25:35;13.70;99.90
12853;DHT22;6495;51.808;7.478;2023-03-31T15:28:32;13.80;99.90
12853;DHT22;6495;51.808;7.478;2023-03-31T15:31:26;13.80;99.90
12853;DHT22;6495;51.808;7.478;2023-03-31T15:34:21;13.80;99.90
12853;DHT22;6495;51.808;7.478;2023-03-31T15:37:14;13.80;99.90
12853;DHT22;6495;51.808;7.478;2023-03-31T15:40:03;13.70;99.90
12853;DHT22;6495;51.808;7.478;2023-03-31T15:43:06;13.70;99.90
12853;DHT22;6495;51.808;7.478;2023-03-31T15:46:09;13.70;99.90
12853;DHT22;6495;51.808;7.478;2023-03-31T15:48:59;13.60;99.90
12853;DHT22;6495;51.808;7.478;2023-03-31T15:51:50;13.60;99.90
12853;DHT22;6495;51.808;7.478;2023-03-31T15:54:40;13.60;99.90
12853;DHT22;6495;51.808;7.478;2023-03-31T15:57:33;13.60;99.90
12853;DHT22;6495;51.808;7.478;2023-03-31T16:00:44;13.60;99.90
12853;DHT22;6495;51.808;7.478;2023-03-31T16:03:35;13.60;99.90
12853;DHT22;6495;51.808;7.478;2023-03-31T16:06:43;13.50;99.90
12853;DHT22;6495;51.808;7.478;2023-03-31T16:09:41;13.50;99.90
12853;DHT22;6495;51.808;7.478;2023-03-31T16:12:36;13.50;99.90
12853;DHT22;6495;51.808;7.478;2023-03-31T16:15:30;13.50;99.90
12853;DHT22;6495;51.808;7.478;2023-03-31T16:18:28;13.40;99.90
12853;DHT22;6495;51.808;7.478;2023-03-31T16:21:22;13.40;99.90
12853;DHT22;6495;51.808;7.478;2023-03-31T16:24:15;13.30;99.90
12853;DHT22;6495;51.808;7.478;2023-03-31T16:27:05;13.30;99.90
12853;DHT22;6495;51.808;7.478;2023-03-31T16:30:07;13.20;99.90
12853;DHT22;6495;51.808;7.478;2023-03-31T16:32:58;13.20;99.90
12853;DHT22;6495;51.808;7.478;2023-03-31T16:35:51;13.10;99.90
12853;DHT22;6495;51.808;7.478;2023-03-31T16:38:42;13.10;99.90
12853;DHT22;6495;51.808;7.478;2023-03-31T16:41:32;13.10;99.90
12853;DHT22;6495;51.808;7.478;2023-03-31T16:44:21;13.00;99.90
12853;DHT22;6495;51.808;7.478;2023-03-31T16:47:10;13.00;99.90
12853;DHT22;6495;51.808;7.478;2023-03-31T16:50:10;13.00;99.90
12853;DHT22;6495;51.808;7.478;2023-03-31T16:53:01;12.90;99.90
12853;DHT22;6495;51.808;7.478;2023-03-31T16:55:49;12.90;99.90
12853;DHT22;6495;51.808;7.478;2023-03-31T16:58:38;12.90;99.90
12853;DHT22;6495;51.808;7.478;2023-03-31T17:01:28;12.80;99.90
12853;DHT22;6495;51.808;7.478;2023-03-31T17:04:16;12.80;99.90
12853;DHT22;6495;51.808;7.478;2023-03-31T17:07:05;12.80;99.90
12853;DHT22;6495;51.808;7.478;2023-03-31T17:09:55;12.80;99.90
12853;DHT22;6495;51.808;7.478;2023-03-31T17:12:44;12.80;99.90
12853;DHT22;6495;51.808;7.478;2023-03-31T17:15:33;12.80;99.90
12853;DHT22;6495;51.808;7.478;2023-03-31T17:18:22;12.80;99.90
12853;DHT22;6495;51.808;7.478;2023-03-31T17:21:13;12.80;99.90
12853;DHT22;6495;51.808;7.478;2023-03-31T17:24:06;12.70;99.90
12853;DHT22;6495;51.808;7.478;2023-03-31T17:26:56;12.70;99.90
12853;DHT22;6495;51.808;7.478;2023-03-31T17:29:44;12.70;99.90
12853;DHT22;6495;51.808;7.478;2023-03-31T17:32:33;12.70;99.90
12853;DHT22;6495;51.808;7.478;2023-03-31T17:35:21;12.70;99.90
12853;DHT22;6495;51.808;7.478;2023-03-31T17:38:10;12.70;99.90
12853;DHT22;6495;51.808;7.478;2023-03-31T17:41:02;12.70;99.90
12853;DHT22;6495;51.808;7.478;2023-03-31T17:43:52;12.60;99.90
12853;DHT22;6495;51.808;7.478;2023-03-31T17:46:41;12.60;99.90
12853;DHT22;6495;51.808;7.478;2023-03-31T17:49:30;12.60;99.90
12853;DHT22;6495;51.808;7.478;2023-03-31T17:52:19;12.60;99.90
12853;DHT22;6495;51.808;7.478;2023-03-31T17:55:09;12.50;99.90
12853;DHT22;6495;51.808;7.478;2023-03-31T17:57:57;12.50;99.90
12853;DHT22;6495;51.808;7.478;2023-03-31T18:00:48;12.50;99.90
12853;DHT22;6495;51.808;7.478;2023-03-31T18:03:38;12.50;99.90
12853;DHT22;6495;51.808;7.478;2023-03-31T18:06:27;12.50;99.90
12853;DHT22;6495;51.808;7.478;2023-03-31T18:09:15;12.40;99.90
12853;DHT22;6495;51.808;7.478;2023-03-31T18:12:04;12.40;99.90
12853;DHT22;6495;51.808;7.478;2023-03-31T18:14:53;12.30;99.90
12853;DHT22;6495;51.808;7.478;2023-03-31T18:17:44;12.30;99.90
12853;DHT22;6495;51.808;7.478;2023-03-31T18:20:32;12.20;99.90
12853;DHT22;6495;51.808;7.478;2023-03-31T18:23:21;12.20;99.90
12853;DHT22;6495;51.808;7.478;2023-03-31T18:26:11;12.10;99.90
12853;DHT22;6495;51.808;7.478;2023-03-31T18:29:00;12.10;99.90
12853;DHT22;6495;51.808;7.478;2023-03-31T18:31:48;12.00;99.90
12853;DHT22;6495;51.808;7.478;2023-03-31T18:34:39;12.00;99.90
12853;DHT22;6495;51.808;7.478;2023-03-31T18:37:27;11.90;99.90
12853;DHT22;6495;51.808;7.478;2023-03-31T18:40:16;11.90;99.90
12853;DHT22;6495;51.808;7.478;2023-03-31T18:43:05;11.90;99.90
12853;DHT22;6495;51.808;7.478;2023-03-31T18:45:54;11.90;99.90
12853;DHT22;6495;51.808;7.478;2023-03-31T18:48:45;11.80;99.90
12853;DHT22;6495;51.808;7.478;2023-03-31T18:51:34;11.80;99.90
12853;DHT22;6495;51.808;7.478;2023-03-31T18:54:23;11.70;99.90
12853;DHT22;6495;51.808;7.478;2023-03-31T18:57:12;11.70;99.90